Time;durP1;ratioP1;P1;durP2;ratioP2;P2;SDS_P1;SDS_P2;PMS_P1;PMS_P2;Temp;Humidity;BMP_temperature;BMP_pressure;BME280_temperature;BME280_humidity;BME280_pressure;Samples;Min_cycle;Max_cycle;Signal;HPM_P1;HPM_P2
2022/11/03 00:00:10;;;;;;;6.35;2.08;;;;;;;;;;5033161;28;20216;-62
2022/11/03 00:02:39;;;;;;;9.98;2.25;;;;;;;;;;5034103;28;20205;-63
2022/11/03 00:07:47;;;;;;;8.70;1.95;;;;;;;;;;5032062;28;20204;-64
2022/11/03 00:10:15;;;;;;;4.50;2.45;;;;;;;;;;5032910;28;20581;-62
2022/11/03 00:12:42;;;;;;;11.25;2.83;;;;;;;;;;5033229;28;20235;-62
2022/11/03 00:15:09;;;;;;;2.67;1.95;;;;;;;;;;5032598;28;20721;-62
2022/11/03 00:17:36;;;;;;;4.30;2.28;;;;;;;;;;5033196;28;20209;-64
2022/11/03 00:20:05;;;;;;;4.03;1.90;;;;;;;;;;5032995;28;20231;-62
2022/11/03 00:22:33;;;;;;;5.00;1.88;;;;;;;;;;5032806;28;20209;-62
2022/11/03 00:25:00;;;;;;;4.75;1.88;;;;;;;;;;5032984;28;20220;-62
2022/11/03 00:27:27;;;;;;;5.70;2.70;;;;;;;;;;5037112;28;20280;-62
2022/11/03 00:29:54;;;;;;;3.92;2.00;;;;;;;;;;5037519;28;20205;-63
2022/11/03 00:32:21;;;;;;;5.28;2.63;;;;;;;;;;5037187;28;20216;-62
2022/11/03 00:34:48;;;;;;;5.00;2.17;;;;;;;;;;5036788;28;20246;-62
2022/11/03 00:37:17;;;;;;;5.57;1.95;;;;;;;;;;5037307;28;20203;-64
2022/11/03 00:39:44;;;;;;;6.18;1.95;;;;;;;;;;5037294;28;20209;-65
2022/11/03 00:42:11;;;;;;;7.28;2.10;;;;;;;;;;5037485;28;20212;-62
2022/11/03 00:44:38;;;;;;;6.40;2.17;;;;;;;;;;5037071;28;20210;-63
2022/11/03 00:47:05;;;;;;;2.65;1.67;;;;;;;;;;5037533;28;20207;-64
2022/11/03 00:49:32;;;;;;;5.05;2.15;;;;;;;;;;5037591;28;20208;-64
2022/11/03 00:51:59;;;;;;;3.55;2.00;;;;;;;;;;5037660;28;20228;-63
2022/11/03 00:54:27;;;;;;;3.63;1.92;;;;;;;;;;5037399;28;20224;-63
2022/11/03 00:56:55;;;;;;;8.32;2.20;;;;;;;;;;5037318;28;20240;-64
2022/11/03 00:59:22;;;;;;;7.30;2.10;;;;;;;;;;5038010;28;20203;-64
2022/11/03 01:01:49;;;;;;;4.65;1.70;;;;;;;;;;5038083;28;20213;-63
2022/11/03 01:07:02;;;;;;;5.63;2.35;;;;;;;;;;5036750;28;20184;-63
2022/11/03 01:09:31;;;;;;;4.13;1.75;;;;;;;;;;5037166;28;20225;-65
2022/11/03 01:11:58;;;;;;;3.50;2.05;;;;;;;;;;5036831;28;20668;-64
2022/11/03 01:14:26;;;;;;;7.50;2.00;;;;;;;;;;5037159;28;20256;-63
2022/11/03 01:16:53;;;;;;;5.22;1.92;;;;;;;;;;5037064;28;20224;-62
2022/11/03 01:19:20;;;;;;;3.20;1.90;;;;;;;;;;5037008;28;20561;-63
2022/11/03 01:21:48;;;;;;;7.88;1.77;;;;;;;;;;5036897;28;20212;-62
2022/11/03 01:24:15;;;;;;;2.88;1.90;;;;;;;;;;5036267;28;20200;-63
2022/11/03 01:26:43;;;;;;;14.27;2.72;;;;;;;;;;5036492;28;20225;-63
2022/11/03 01:29:10;;;;;;;5.57;2.45;;;;;;;;;;5036794;28;20213;-62
2022/11/03 01:31:37;;;;;;;5.38;2.50;;;;;;;;;;5036632;28;20212;-63
2022/11/03 01:34:04;;;;;;;3.03;1.70;;;;;;;;;;5036447;28;20214;-62
2022/11/03 01:36:31;;;;;;;6.03;2.20;;;;;;;;;;5035843;28;20220;-62
2022/11/03 01:38:58;;;;;;;5.00;1.90;;;;;;;;;;5035563;28;20206;-62
2022/11/03 01:41:27;;;;;;;9.52;2.80;;;;;;;;;;5036365;28;20210;-63
2022/11/03 01:44:08;;;;;;;6.55;2.10;;;;;;;;;;5036038;28;20208;-62
2022/11/03 01:46:40;;;;;;;3.75;2.22;;;;;;;;;;5034425;28;20600;-63
2022/11/03 01:49:11;;;;;;;9.80;2.60;;;;;;;;;;5035518;28;20283;-63
2022/11/03 01:51:38;;;;;;;5.60;2.30;;;;;;;;;;5035748;28;20576;-62
2022/11/03 01:54:08;;;;;;;3.42;2.15;;;;;;;;;;5035616;28;20204;-63
2022/11/03 01:56:36;;;;;;;4.10;1.80;;;;;;;;;;5035266;28;20244;-63
2022/11/03 01:59:03;;;;;;;4.10;2.30;;;;;;;;;;5035521;28;20204;-64
2022/11/03 02:01:31;;;;;;;6.07;2.53;;;;;;;;;;5035180;28;20670;-63
2022/11/03 02:04:00;;;;;;;5.40;1.60;;;;;;;;;;5035470;28;20205;-63
2022/11/03 02:06:29;;;;;;;9.32;2.35;;;;;;;;;;5035356;28;20234;-64
2022/11/03 02:08:59;;;;;;;5.82;2.20;;;;;;;;;;5035237;28;20210;-63
2022/11/03 02:14:12;;;;;;;4.35;1.70;;;;;;;;;;5034963;28;20177;-63
2022/11/03 02:16:40;;;;;;;6.97;2.72;;;;;;;;;;5035013;28;20313;-63
2022/11/03 02:19:11;;;;;;;5.45;1.77;;;;;;;;;;5035185;28;20208;-63
2022/11/03 02:21:40;;;;;;;5.47;1.85;;;;;;;;;;5034625;28;20582;-63
2022/11/03 02:24:13;;;;;;;6.82;2.30;;;;;;;;;;5035035;28;20207;-64
2022/11/03 02:26:44;;;;;;;8.15;2.28;;;;;;;;;;5035378;28;20229;-63
2022/11/03 02:29:11;;;;;;;4.32;1.55;;;;;;;;;;5034949;28;20555;-63
2022/11/03 02:31:42;;;;;;;5.78;1.90;;;;;;;;;;5034800;28;20215;-63
2022/11/03 02:34:13;;;;;;;3.95;1.70;;;;;;;;;;5034893;28;20189;-63
2022/11/03 02:36:43;;;;;;;4.60;1.83;;;;;;;;;;5034787;28;20234;-63
2022/11/03 02:39:13;;;;;;;4.72;1.98;;;;;;;;;;5034306;28;20579;-64
2022/11/03 02:41:42;;;;;;;6.07;1.90;;;;;;;;;;5034637;28;20209;-63
2022/11/03 02:44:14;;;;;;;7.22;2.72;;;;;;;;;;5034692;28;20211;-63
2022/11/03 02:46:41;;;;;;;8.05;2.70;;;;;;;;;;5035003;28;20231;-63
2022/11/03 02:49:08;;;;;;;3.92;1.77;;;;;;;;;;5033673;28;20220;-63
2022/11/03 02:51:35;;;;;;;5.80;2.10;;;;;;;;;;5034591;28;20209;-63
2022/11/03 02:54:05;;;;;;;3.50;2.10;;;;;;;;;;5034992;28;20203;-63
2022/11/03 02:56:35;;;;;;;7.55;2.22;;;;;;;;;;5034909;28;20230;-64
2022/11/03 02:59:05;;;;;;;6.60;2.05;;;;;;;;;;5034939;28;20280;-63
2022/11/03 03:01:35;;;;;;;4.63;2.20;;;;;;;;;;5034628;28;20205;-63
2022/11/03 03:04:06;;;;;;;6.53;2.67;;;;;;;;;;5034212;28;20189;-63
2022/11/03 03:06:36;;;;;;;5.40;2.08;;;;;;;;;;5034205;28;20219;-63
2022/11/03 03:09:05;;;;;;;4.35;2.63;;;;;;;;;;5034621;28;20209;-62
2022/11/03 03:11:38;;;;;;;5.80;2.00;;;;;;;;;;5034091;28;20209;-62
2022/11/03 03:14:11;;;;;;;5.95;1.80;;;;;;;;;;5035597;28;20189;-63
2022/11/03 03:16:43;;;;;;;7.63;2.20;;;;;;;;;;5036448;28;20230;-63
2022/11/03 03:19:14;;;;;;;9.30;2.05;;;;;;;;;;5036502;28;20208;-63
2022/11/03 03:21:44;;;;;;;8.57;2.42;;;;;;;;;;5035936;28;20204;-62
2022/11/03 03:24:14;;;;;;;4.57;1.90;;;;;;;;;;5036388;28;20673;-63
2022/11/03 03:26:42;;;;;;;5.13;2.10;;;;;;;;;;5037066;28;20221;-63
2022/11/03 03:29:14;;;;;;;8.82;2.35;;;;;;;;;;5036546;28;20222;-63
2022/11/03 03:31:43;;;;;;;6.25;2.30;;;;;;;;;;5034771;28;20184;-63
2022/11/03 03:34:11;;;;;;;5.40;2.33;;;;;;;;;;5034590;28;20226;-65
2022/11/03 03:36:39;;;;;;;5.93;2.60;;;;;;;;;;5034296;28;20253;-64
2022/11/03 03:39:07;;;;;;;7.15;2.50;;;;;;;;;;5033861;28;20576;-64
2022/11/03 03:41:36;;;;;;;7.07;2.33;;;;;;;;;;5033774;28;20209;-64
2022/11/03 03:44:05;;;;;;;14.13;2.35;;;;;;;;;;5033704;28;20232;-64
2022/11/03 03:46:35;;;;;;;5.32;2.33;;;;;;;;;;5033536;28;20221;-63
2022/11/03 03:49:02;;;;;;;7.38;2.25;;;;;;;;;;5033450;28;20189;-64
2022/11/03 03:51:30;;;;;;;7.85;2.05;;;;;;;;;;5034050;28;20218;-63
2022/11/03 03:53:57;;;;;;;7.18;2.65;;;;;;;;;;5034427;28;20207;-63
2022/11/03 03:56:27;;;;;;;6.05;1.77;;;;;;;;;;5033255;28;20238;-64
2022/11/03 03:58:54;;;;;;;6.38;2.47;;;;;;;;;;5033075;28;20214;-63
2022/11/03 04:01:21;;;;;;;5.63;2.75;;;;;;;;;;5032634;28;20211;-63
2022/11/03 04:03:50;;;;;;;3.70;2.20;;;;;;;;;;5033871;28;20207;-64
2022/11/03 04:06:17;;;;;;;8.55;2.53;;;;;;;;;;5033470;28;20221;-63
2022/11/03 04:10:29;;;;;;;5.90;2.38;;;;;;;;;;5092998;27;20578;-63
2022/11/03 04:23:57;;;;;;;6.55;2.13;;;;;;;;;;5101532;22;20670;-65
2022/11/03 04:26:25;;;;;;;7.97;2.50;;;;;;;;;;5070648;28;20204;-64
2022/11/03 04:28:53;;;;;;;7.28;2.65;;;;;;;;;;5069953;28;20216;-65
2022/11/03 04:31:21;;;;;;;6.50;2.83;;;;;;;;;;5070159;28;20204;-65
2022/11/03 04:33:48;;;;;;;8.10;2.60;;;;;;;;;;5069964;28;20235;-64
2022/11/03 04:36:17;;;;;;;3.20;2.00;;;;;;;;;;5070215;28;20211;-63
2022/11/03 04:38:45;;;;;;;3.65;2.30;;;;;;;;;;5069977;28;20196;-64
2022/11/03 04:41:15;;;;;;;6.85;2.50;;;;;;;;;;5070081;28;20208;-64
2022/11/03 04:43:44;;;;;;;8.57;2.28;;;;;;;;;;5070056;28;20228;-64
2022/11/03 04:46:11;;;;;;;7.18;2.15;;;;;;;;;;5069953;28;20211;-64
2022/11/03 04:48:39;;;;;;;8.93;3.25;;;;;;;;;;5069927;28;20231;-64
2022/11/03 04:51:13;;;;;;;6.85;3.08;;;;;;;;;;5069458;28;20675;-65
2022/11/03 04:53:40;;;;;;;6.55;2.20;;;;;;;;;;5069741;28;20230;-65
2022/11/03 04:56:13;;;;;;;7.47;3.58;;;;;;;;;;5069685;28;20210;-65
2022/11/03 04:58:40;;;;;;;5.30;2.33;;;;;;;;;;5069484;28;20178;-65
2022/11/03 05:01:13;;;;;;;6.60;2.55;;;;;;;;;;5069213;28;20625;-64
2022/11/03 05:03:41;;;;;;;8.05;2.72;;;;;;;;;;5069144;28;20235;-63
2022/11/03 05:06:12;;;;;;;4.75;2.40;;;;;;;;;;5069227;28;20684;-64
2022/11/03 05:08:39;;;;;;;5.07;2.40;;;;;;;;;;5068838;28;20703;-64
2022/11/03 05:11:13;;;;;;;6.35;2.33;;;;;;;;;;5069266;28;20212;-64
2022/11/03 05:13:40;;;;;;;11.02;2.53;;;;;;;;;;5069197;28;20232;-65
2022/11/03 05:16:08;;;;;;;6.68;2.83;;;;;;;;;;5069010;28;20197;-65
2022/11/03 05:18:38;;;;;;;4.80;2.28;;;;;;;;;;5069417;28;20206;-65
2022/11/03 05:21:07;;;;;;;10.25;2.50;;;;;;;;;;5059425;28;20204;-65
2022/11/03 05:23:38;;;;;;;5.32;2.60;;;;;;;;;;5055457;28;20229;-66
2022/11/03 05:26:06;;;;;;;2.97;2.22;;;;;;;;;;5055881;28;20197;-64
2022/11/03 05:28:35;;;;;;;5.65;1.98;;;;;;;;;;5055687;28;20549;-64
2022/11/03 05:31:02;;;;;;;7.15;2.55;;;;;;;;;;5056083;28;20216;-62
2022/11/03 05:33:31;;;;;;;3.70;2.20;;;;;;;;;;5055389;28;20667;-63
2022/11/03 05:36:02;;;;;;;4.75;2.30;;;;;;;;;;5054915;28;20625;-65
2022/11/03 05:38:31;;;;;;;5.38;2.38;;;;;;;;;;5054783;28;20224;-65
2022/11/03 05:40:59;;;;;;;4.47;2.65;;;;;;;;;;5055475;28;20199;-64
2022/11/03 05:43:26;;;;;;;8.70;2.95;;;;;;;;;;5055679;28;20247;-66
2022/11/03 05:45:56;;;;;;;5.07;2.63;;;;;;;;;;5055523;28;20288;-64
2022/11/03 05:48:28;;;;;;;8.00;2.83;;;;;;;;;;5055908;28;20210;-64
2022/11/03 05:50:59;;;;;;;8.98;2.55;;;;;;;;;;5055892;28;20179;-64
2022/11/03 05:53:29;;;;;;;5.35;3.00;;;;;;;;;;5055780;28;20257;-66
2022/11/03 05:55:56;;;;;;;7.40;3.08;;;;;;;;;;5055820;28;20193;-64
2022/11/03 05:58:26;;;;;;;5.00;2.47;;;;;;;;;;5054802;28;20205;-64
2022/11/03 06:00:53;;;;;;;11.98;3.03;;;;;;;;;;5055822;28;20628;-63
2022/11/03 06:03:23;;;;;;;8.27;3.00;;;;;;;;;;5055238;28;20278;-63
2022/11/03 06:05:51;;;;;;;5.28;2.95;;;;;;;;;;5055326;28;20246;-64
2022/11/03 06:08:20;;;;;;;3.95;2.28;;;;;;;;;;5055175;28;20214;-65
2022/11/03 06:10:50;;;;;;;5.10;2.50;;;;;;;;;;5054837;28;20294;-63
2022/11/03 06:13:19;;;;;;;4.85;2.92;;;;;;;;;;5054629;28;20282;-65
2022/11/03 06:15:47;;;;;;;6.97;2.95;;;;;;;;;;5036503;28;20258;-65
2022/11/03 06:18:16;;;;;;;10.73;3.75;;;;;;;;;;5036861;28;20212;-65
2022/11/03 06:20:46;;;;;;;5.38;3.17;;;;;;;;;;5035175;28;20292;-64
2022/11/03 06:23:15;;;;;;;11.73;3.22;;;;;;;;;;5035081;28;20727;-62
2022/11/03 06:26:03;;;;;;;;;;;;;;;;;;;;;
2022/11/03 06:28:32;;;;;;;10.95;2.58;;;;;;;;;;5039681;28;20590;-60
2022/11/03 06:31:00;;;;;;;9.00;2.80;;;;;;;;;;5057199;28;20754;-63
2022/11/03 06:33:28;;;;;;;7.40;3.13;;;;;;;;;;5055398;28;20224;-60
2022/11/03 06:35:59;;;;;;;6.20;3.05;;;;;;;;;;5056570;28;20203;-64
2022/11/03 06:38:26;;;;;;;5.43;2.70;;;;;;;;;;5057294;28;20191;-62
2022/11/03 06:40:54;;;;;;;8.27;3.67;;;;;;;;;;5055097;28;20246;-63
2022/11/03 06:43:23;;;;;;;8.57;3.47;;;;;;;;;;5055187;28;20220;-63
2022/11/03 06:45:53;;;;;;;14.38;3.30;;;;;;;;;;5055104;28;20201;-63
2022/11/03 06:48:24;;;;;;;6.65;2.75;;;;;;;;;;5055590;28;20215;-63
2022/11/03 06:50:52;;;;;;;6.45;2.88;;;;;;;;;;5056896;28;20213;-63
2022/11/03 06:53:20;;;;;;;13.23;3.33;;;;;;;;;;5055131;28;20230;-62
2022/11/03 06:55:49;;;;;;;4.55;2.30;;;;;;;;;;5054192;28;20285;-62
2022/11/03 06:58:17;;;;;;;5.88;2.75;;;;;;;;;;5055649;28;20212;-62
2022/11/03 07:00:44;;;;;;;7.97;2.85;;;;;;;;;;5054372;28;20203;-60
2022/11/03 07:03:15;;;;;;;5.00;2.55;;;;;;;;;;5054454;28;20220;-61
2022/11/03 07:05:43;;;;;;;7.13;2.53;;;;;;;;;;5057620;28;20186;-62
2022/11/03 07:08:15;;;;;;;8.50;3.50;;;;;;;;;;5054126;28;20198;-61
2022/11/03 07:10:42;;;;;;;7.50;3.13;;;;;;;;;;5054747;28;20787;-62
2022/11/03 07:13:13;;;;;;;5.70;2.53;;;;;;;;;;5054611;28;20225;-61
2022/11/03 07:15:41;;;;;;;7.50;3.08;;;;;;;;;;5055437;28;20558;-60
2022/11/03 07:18:16;;;;;;;6.03;2.50;;;;;;;;;;5055650;28;20313;-61
2022/11/03 07:20:43;;;;;;;4.60;3.03;;;;;;;;;;5056112;28;20285;-61
2022/11/03 07:23:13;;;;;;;4.95;3.15;;;;;;;;;;5054910;28;20231;-60
2022/11/03 07:25:40;;;;;;;7.85;2.85;;;;;;;;;;5056024;28;20202;-61
2022/11/03 07:28:09;;;;;;;6.67;2.80;;;;;;;;;;5054276;28;20198;-61
2022/11/03 07:30:37;;;;;;;4.57;2.40;;;;;;;;;;5053931;28;20492;-60
2022/11/03 07:33:11;;;;;;;5.10;2.67;;;;;;;;;;5053751;28;20251;-61
2022/11/03 07:35:41;;;;;;;6.70;3.40;;;;;;;;;;5053764;28;20186;-62
2022/11/03 07:38:10;;;;;;;6.15;2.88;;;;;;;;;;5055977;28;20454;-62
2022/11/03 07:40:38;;;;;;;8.63;3.65;;;;;;;;;;5054160;28;20204;-62
2022/11/03 07:43:11;;;;;;;7.40;3.13;;;;;;;;;;5054114;28;20263;-62
2022/11/03 07:45:39;;;;;;;6.83;2.50;;;;;;;;;;5052991;28;20454;-62
2022/11/03 07:48:15;;;;;;;8.23;3.45;;;;;;;;;;5053404;28;20539;-62
2022/11/03 07:50:44;;;;;;;6.22;2.72;;;;;;;;;;5053899;28;20251;-63
2022/11/03 07:53:14;;;;;;;9.03;2.70;;;;;;;;;;5053894;28;20223;-62
2022/11/03 07:55:41;;;;;;;6.20;2.40;;;;;;;;;;5053655;28;20451;-62
2022/11/03 07:58:18;;;;;;;4.47;2.20;;;;;;;;;;5053207;28;20453;-61
2022/11/03 08:00:45;;;;;;;7.20;3.40;;;;;;;;;;5053499;28;20426;-62
2022/11/03 08:03:31;;;;;;;7.33;3.03;;;;;;;;;;5053849;28;20464;-62
2022/11/03 08:05:59;;;;;;;8.65;2.75;;;;;;;;;;5053147;28;20434;-61
2022/11/03 08:08:26;;;;;;;5.40;2.80;;;;;;;;;;5053187;28;20206;-62
2022/11/03 08:10:53;;;;;;;7.07;2.70;;;;;;;;;;5052969;28;20473;-62
2022/11/03 08:13:20;;;;;;;4.90;2.77;;;;;;;;;;5052593;28;20576;-61
2022/11/03 08:15:47;;;;;;;6.40;2.73;;;;;;;;;;5053313;28;20444;-61
2022/11/03 08:18:14;;;;;;;7.27;3.33;;;;;;;;;;5053290;28;20449;-62
2022/11/03 08:20:42;;;;;;;7.37;2.83;;;;;;;;;;5054481;28;20456;-62
2022/11/03 08:23:11;;;;;;;4.30;2.43;;;;;;;;;;5052787;28;20487;-62
2022/11/03 08:25:38;;;;;;;4.10;2.20;;;;;;;;;;5053985;28;20449;-62
2022/11/03 08:28:05;;;;;;;5.63;2.70;;;;;;;;;;5056547;28;20446;-62
2022/11/03 08:30:33;;;;;;;4.90;2.60;;;;;;;;;;5056136;28;20508;-63
2022/11/03 08:33:00;;;;;;;7.43;2.27;;;;;;;;;;5054650;28;20466;-62
2022/11/03 08:35:27;;;;;;;8.23;2.77;;;;;;;;;;5054263;28;20446;-63
2022/11/03 08:37:54;;;;;;;8.37;3.00;;;;;;;;;;5055221;28;20457;-62
2022/11/03 08:40:22;;;;;;;5.67;2.43;;;;;;;;;;5053962;28;20436;-62
2022/11/03 08:42:49;;;;;;;7.27;2.77;;;;;;;;;;5052874;28;20469;-64
2022/11/03 08:45:17;;;;;;;5.77;2.30;;;;;;;;;;5052755;28;20453;-62
2022/11/03 08:47:44;;;;;;;5.33;2.30;;;;;;;;;;5052925;28;20950;-61
2022/11/03 08:50:11;;;;;;;6.47;2.00;;;;;;;;;;5052969;28;20482;-62
2022/11/03 08:52:38;;;;;;;5.17;2.30;;;;;;;;;;5052092;28;20840;-63
2022/11/03 08:55:05;;;;;;;7.40;2.60;;;;;;;;;;5052276;28;21002;-63
2022/11/03 08:57:34;;;;;;;7.00;2.60;;;;;;;;;;5058863;28;20445;-63
2022/11/03 09:00:01;;;;;;;6.33;2.50;;;;;;;;;;5064182;28;20519;-63
2022/11/03 09:02:28;;;;;;;4.23;2.17;;;;;;;;;;5065289;28;20533;-63
2022/11/03 09:04:55;;;;;;;3.73;2.83;;;;;;;;;;5066593;28;20456;-64
2022/11/03 09:07:22;;;;;;;5.77;2.30;;;;;;;;;;5070712;28;20434;-66
2022/11/03 09:09:49;;;;;;;3.70;2.30;;;;;;;;;;5060374;28;21043;-62
2022/11/03 09:12:16;;;;;;;4.80;2.37;;;;;;;;;;5059236;28;20808;-62
2022/11/03 09:14:45;;;;;;;7.10;4.07;;;;;;;;;;5056751;28;20470;-63
2022/11/03 09:17:12;;;;;;;5.20;2.70;;;;;;;;;;5057521;28;20818;-64
2022/11/03 09:19:39;;;;;;;6.97;2.70;;;;;;;;;;5057317;28;20456;-63
2022/11/03 09:22:06;;;;;;;5.30;2.43;;;;;;;;;;5057403;28;20444;-62
2022/11/03 09:24:33;;;;;;;5.67;2.87;;;;;;;;;;5057674;28;20481;-63
2022/11/03 09:27:00;;;;;;;7.07;2.67;;;;;;;;;;5056457;28;20458;-62
2022/11/03 09:29:27;;;;;;;9.87;2.80;;;;;;;;;;5056249;28;20440;-63
2022/11/03 09:31:56;;;;;;;10.73;3.43;;;;;;;;;;5056133;28;20444;-62
2022/11/03 09:34:23;;;;;;;7.07;2.73;;;;;;;;;;5055992;28;20611;-63
2022/11/03 09:36:50;;;;;;;9.20;3.03;;;;;;;;;;5056332;28;20448;-62
2022/11/03 09:39:18;;;;;;;8.57;2.67;;;;;;;;;;5056142;28;20491;-63
2022/11/03 09:41:45;;;;;;;10.27;3.37;;;;;;;;;;5055725;28;20548;-62
2022/11/03 09:44:12;;;;;;;6.40;2.47;;;;;;;;;;5056352;28;20470;-64
2022/11/03 09:46:39;;;;;;;3.90;2.50;;;;;;;;;;5057140;28;20490;-63
2022/11/03 09:49:07;;;;;;;4.60;2.07;;;;;;;;;;5055552;28;20439;-63
2022/11/03 09:51:36;;;;;;;5.50;2.27;;;;;;;;;;5055820;28;20482;-63
2022/11/03 09:54:03;;;;;;;6.03;2.27;;;;;;;;;;5055857;28;20593;-63
2022/11/03 09:56:31;;;;;;;5.00;2.10;;;;;;;;;;5055875;28;20450;-63
2022/11/03 09:58:58;;;;;;;4.90;2.13;;;;;;;;;;5055587;28;20440;-62
2022/11/03 10:01:25;;;;;;;5.13;2.53;;;;;;;;;;5056049;28;20441;-63
2022/11/03 10:03:52;;;;;;;8.40;2.40;;;;;;;;;;5055351;28;20471;-64
2022/11/03 10:06:21;;;;;;;7.53;2.63;;;;;;;;;;5055142;28;20463;-63
2022/11/03 10:08:48;;;;;;;6.30;1.90;;;;;;;;;;5055693;28;20451;-61
2022/11/03 10:11:16;;;;;;;5.20;2.40;;;;;;;;;;5055685;28;20943;-62
2022/11/03 10:13:44;;;;;;;4.70;2.03;;;;;;;;;;5055935;28;20464;-62
2022/11/03 10:16:13;;;;;;;5.70;2.30;;;;;;;;;;5055676;28;20447;-61
2022/11/03 10:18:40;;;;;;;8.17;2.50;;;;;;;;;;5058368;28;20459;-63
2022/11/03 10:21:08;;;;;;;4.90;2.30;;;;;;;;;;5057535;28;20802;-62
2022/11/03 10:23:36;;;;;;;3.27;2.00;;;;;;;;;;5056228;28;20496;-63
2022/11/03 10:26:09;;;;;;;11.23;2.87;;;;;;;;;;5094379;22;20494;-64
2022/11/03 10:28:37;;;;;;;5.03;2.40;;;;;;;;;;5075224;28;20904;-64
2022/11/03 10:31:07;;;;;;;9.33;3.03;;;;;;;;;;5074593;28;20486;-63
2022/11/03 10:33:35;;;;;;;4.10;2.30;;;;;;;;;;5074861;28;20443;-63
2022/11/03 10:36:03;;;;;;;8.10;2.30;;;;;;;;;;5075011;28;20826;-64
2022/11/03 10:38:31;;;;;;;4.43;2.50;;;;;;;;;;5075511;28;20446;-63
2022/11/03 10:41:10;;;;;;;6.10;2.60;;;;;;;;;;5074793;28;20446;-64
2022/11/03 10:43:37;;;;;;;4.13;2.00;;;;;;;;;;5075179;28;20431;-64
2022/11/03 10:46:12;;;;;;;4.83;2.40;;;;;;;;;;5075295;28;20463;-65
2022/11/03 10:48:39;;;;;;;7.83;3.27;;;;;;;;;;5075187;28;20442;-63
2022/11/03 10:51:06;;;;;;;6.63;2.40;;;;;;;;;;5076390;28;20576;-63
2022/11/03 10:53:33;;;;;;;4.50;2.07;;;;;;;;;;5074247;28;20448;-63
2022/11/03 10:56:01;;;;;;;5.30;1.80;;;;;;;;;;5074505;28;20466;-64
2022/11/03 10:58:30;;;;;;;5.03;2.23;;;;;;;;;;5075937;28;20447;-63
2022/11/03 11:00:57;;;;;;;3.87;2.20;;;;;;;;;;5074138;28;20450;-64
2022/11/03 11:03:24;;;;;;;7.50;3.07;;;;;;;;;;5074410;28;20943;-64
2022/11/03 11:05:51;;;;;;;9.73;2.47;;;;;;;;;;5074060;28;20467;-64
2022/11/03 11:08:22;;;;;;;6.60;2.63;;;;;;;;;;5073920;28;20446;-62
2022/11/03 11:10:49;;;;;;;3.37;1.80;;;;;;;;;;5073651;28;20463;-63
2022/11/03 11:13:26;;;;;;;4.27;2.53;;;;;;;;;;5073994;28;20500;-64
2022/11/03 11:15:56;;;;;;;6.43;2.67;;;;;;;;;;5074847;28;20498;-63
2022/11/03 11:18:41;;;;;;;4.30;2.33;;;;;;;;;;5073905;28;20808;-64
2022/11/03 11:21:24;;;;;;;13.57;2.30;;;;;;;;;;5074541;28;20963;-64
2022/11/03 11:23:52;;;;;;;8.93;2.77;;;;;;;;;;5073503;28;20448;-63
2022/11/03 11:26:40;;;;;;;6.13;2.93;;;;;;;;;;5073343;28;20478;-63
2022/11/03 11:29:25;;;;;;;5.90;2.83;;;;;;;;;;5074413;28;20825;-64
2022/11/03 11:31:54;;;;;;;6.13;2.27;;;;;;;;;;5074080;28;20494;-63
2022/11/03 11:34:40;;;;;;;7.70;4.40;;;;;;;;;;5073682;28;20936;-63
2022/11/03 11:37:25;;;;;;;5.87;2.80;;;;;;;;;;5073388;28;20897;-63
2022/11/03 11:39:53;;;;;;;5.57;2.93;;;;;;;;;;5074504;28;20439;-62
2022/11/03 11:42:20;;;;;;;4.80;2.50;;;;;;;;;;5074370;28;20455;-64
2022/11/03 11:44:57;;;;;;;5.53;2.50;;;;;;;;;;5073639;28;20516;-63
2022/11/03 11:47:27;;;;;;;5.37;2.30;;;;;;;;;;5073580;28;20520;-64
2022/11/03 11:50:12;;;;;;;5.87;2.17;;;;;;;;;;5073113;28;20450;-64
2022/11/03 11:52:43;;;;;;;8.47;3.13;;;;;;;;;;5073086;28;20444;-62
2022/11/03 11:55:16;;;;;;;6.63;2.70;;;;;;;;;;5073193;28;20563;-63
2022/11/03 11:57:45;;;;;;;7.97;2.97;;;;;;;;;;5073140;28;20424;-63
2022/11/03 12:00:18;;;;;;;5.43;2.57;;;;;;;;;;5073023;28;20506;-63
2022/11/03 12:02:47;;;;;;;6.80;3.20;;;;;;;;;;5073866;28;20446;-63
2022/11/03 12:05:19;;;;;;;5.53;2.50;;;;;;;;;;5073969;28;20466;-65
2022/11/03 12:07:46;;;;;;;5.23;2.30;;;;;;;;;;5074698;28;20428;-65
2022/11/03 12:10:15;;;;;;;5.40;2.70;;;;;;;;;;5074561;28;20435;-63
2022/11/03 12:12:42;;;;;;;6.50;2.60;;;;;;;;;;5074210;28;20471;-63
2022/11/03 12:15:24;;;;;;;4.20;2.60;;;;;;;;;;5073788;28;20473;-64
2022/11/03 12:17:53;;;;;;;5.73;2.00;;;;;;;;;;5073391;28;20432;-63
2022/11/03 12:20:35;;;;;;;6.70;2.10;;;;;;;;;;5074249;28;20453;-63
2022/11/03 12:23:02;;;;;;;7.60;2.40;;;;;;;;;;5075798;28;20428;-65
2022/11/03 12:25:33;;;;;;;8.00;2.70;;;;;;;;;;5075145;28;20499;-64
2022/11/03 12:28:00;;;;;;;3.30;2.30;;;;;;;;;;5073405;28;20475;-64
2022/11/03 12:30:28;;;;;;;6.90;2.27;;;;;;;;;;5074195;28;20948;-63
2022/11/03 12:32:56;;;;;;;10.80;3.77;;;;;;;;;;5078298;28;20447;-64
2022/11/03 12:35:23;;;;;;;11.40;2.70;;;;;;;;;;5077541;28;21063;-65
2022/11/03 12:37:50;;;;;;;6.03;2.63;;;;;;;;;;5078103;28;20447;-63
2022/11/03 12:40:18;;;;;;;5.23;2.50;;;;;;;;;;5077824;28;20538;-64
2022/11/03 12:42:45;;;;;;;7.60;2.00;;;;;;;;;;5078318;28;20532;-64
2022/11/03 12:45:13;;;;;;;8.47;2.20;;;;;;;;;;5078540;28;20463;-64
2022/11/03 12:47:40;;;;;;;3.70;2.30;;;;;;;;;;5077612;28;20912;-63
2022/11/03 12:50:09;;;;;;;5.57;2.60;;;;;;;;;;5076890;28;20443;-65
2022/11/03 12:52:36;;;;;;;6.70;2.50;;;;;;;;;;5077528;28;20489;-62
2022/11/03 12:55:03;;;;;;;6.60;2.70;;;;;;;;;;5078111;28;20464;-64
2022/11/03 12:57:30;;;;;;;17.13;13.10;;;;;;;;;;5078489;28;20450;-63
2022/11/03 12:59:57;;;;;;;20.70;16.07;;;;;;;;;;5078755;28;20439;-65
2022/11/03 13:02:24;;;;;;;30.33;22.13;;;;;;;;;;5078046;28;20537;-64
2022/11/03 13:04:51;;;;;;;20.37;10.70;;;;;;;;;;5078306;28;20471;-65
2022/11/03 13:07:20;;;;;;;11.30;4.30;;;;;;;;;;5078271;28;20446;-65
2022/11/03 13:09:47;;;;;;;3.30;2.30;;;;;;;;;;5079386;28;20442;-64
2022/11/03 13:12:34;;;;;;;7.13;3.40;;;;;;;;;;5079985;28;20543;-65
2022/11/03 13:15:02;;;;;;;7.73;2.20;;;;;;;;;;5079303;28;20558;-65
2022/11/03 13:17:29;;;;;;;7.63;2.33;;;;;;;;;;5078307;28;20446;-64
2022/11/03 13:19:56;;;;;;;5.80;2.80;;;;;;;;;;5077606;28;20811;-65
2022/11/03 13:22:25;;;;;;;6.97;2.60;;;;;;;;;;5078004;28;20437;-63
2022/11/03 13:24:52;;;;;;;4.23;2.17;;;;;;;;;;5077650;28;20483;-65
2022/11/03 13:27:19;;;;;;;3.70;2.23;;;;;;;;;;5077650;28;20428;-63
2022/11/03 13:29:46;;;;;;;6.27;2.60;;;;;;;;;;5078077;28;20450;-64
2022/11/03 13:32:13;;;;;;;6.73;2.80;;;;;;;;;;5077234;28;20475;-64
2022/11/03 13:34:40;;;;;;;10.90;3.13;;;;;;;;;;5077748;28;20477;-65
2022/11/03 13:37:07;;;;;;;5.03;2.67;;;;;;;;;;5078670;28;20466;-64
2022/11/03 13:39:36;;;;;;;3.20;2.10;;;;;;;;;;5077433;28;20971;-65
2022/11/03 13:42:03;;;;;;;14.23;2.90;;;;;;;;;;5076536;28;20443;-63
2022/11/03 13:44:30;;;;;;;3.20;2.00;;;;;;;;;;5076424;28;20464;-67
2022/11/03 13:46:57;;;;;;;6.30;2.67;;;;;;;;;;5076011;28;20440;-64
2022/11/03 13:49:24;;;;;;;4.67;2.63;;;;;;;;;;5079016;28;20451;-64
2022/11/03 13:51:52;;;;;;;5.13;2.40;;;;;;;;;;5077161;28;20481;-64
2022/11/03 13:54:19;;;;;;;6.40;2.50;;;;;;;;;;5077574;28;20481;-64
2022/11/03 13:56:47;;;;;;;5.43;2.73;;;;;;;;;;5076972;28;20610;-65
2022/11/03 13:59:14;;;;;;;5.60;2.90;;;;;;;;;;5076624;28;20451;-64
2022/11/03 14:01:41;;;;;;;7.67;2.77;;;;;;;;;;5077678;28;20789;-64
2022/11/03 14:04:08;;;;;;;8.17;2.53;;;;;;;;;;5076913;28;20443;-64
2022/11/03 14:06:35;;;;;;;2.90;2.00;;;;;;;;;;5076270;28;20450;-65
2022/11/03 14:09:03;;;;;;;6.67;3.00;;;;;;;;;;5077503;28;20977;-65
2022/11/03 14:14:15;;;;;;;6.83;2.80;;;;;;;;;;5076266;28;20483;-63
2022/11/03 14:16:43;;;;;;;5.53;2.70;;;;;;;;;;5076455;28;20469;-65
2022/11/03 14:19:10;;;;;;;3.77;2.17;;;;;;;;;;5076270;28;20443;-66
2022/11/03 14:21:39;;;;;;;4.77;3.40;;;;;;;;;;5075552;28;20454;-64
2022/11/03 14:24:06;;;;;;;4.30;2.20;;;;;;;;;;5075745;28;20457;-64
2022/11/03 14:26:33;;;;;;;3.83;2.03;;;;;;;;;;5075450;28;20836;-64
2022/11/03 14:29:00;;;;;;;3.97;2.10;;;;;;;;;;5076031;28;20450;-64
2022/11/03 14:31:29;;;;;;;4.53;2.60;;;;;;;;;;5075694;28;20483;-63
2022/11/03 14:33:56;;;;;;;9.20;2.57;;;;;;;;;;5075888;28;20457;-64
2022/11/03 14:36:23;;;;;;;6.80;2.53;;;;;;;;;;5076426;28;20473;-64
2022/11/03 14:38:50;;;;;;;7.07;2.67;;;;;;;;;;5075899;28;20459;-65
2022/11/03 14:44:02;;;;;;;4.63;2.50;;;;;;;;;;5075720;28;20972;-64
2022/11/03 14:46:31;;;;;;;4.13;2.33;;;;;;;;;;5075270;28;20470;-62
2022/11/03 14:48:59;;;;;;;4.40;2.37;;;;;;;;;;5074743;28;20453;-63
2022/11/03 14:51:26;;;;;;;3.13;2.33;;;;;;;;;;5074237;28;20478;-65
2022/11/03 14:53:54;;;;;;;7.20;3.07;;;;;;;;;;5074433;28;20456;-65
2022/11/03 14:56:21;;;;;;;5.70;3.00;;;;;;;;;;5074219;28;20967;-65
2022/11/03 14:58:48;;;;;;;4.60;2.70;;;;;;;;;;5075128;28;20450;-63
2022/11/03 15:01:16;;;;;;;4.77;2.67;;;;;;;;;;5074446;28;20446;-61
2022/11/03 15:03:44;;;;;;;2.83;2.00;;;;;;;;;;5074255;28;20503;-63
2022/11/03 15:06:11;;;;;;;2.47;2.17;;;;;;;;;;5074163;28;20463;-63
2022/11/03 15:08:39;;;;;;;6.23;2.90;;;;;;;;;;5074675;28;20446;-65
2022/11/03 15:11:07;;;;;;;5.33;2.60;;;;;;;;;;5074429;28;20795;-61
2022/11/03 15:13:34;;;;;;;3.47;2.80;;;;;;;;;;5074836;28;20444;-64
2022/11/03 15:16:01;;;;;;;6.30;2.70;;;;;;;;;;5074350;28;20467;-63
2022/11/03 15:18:28;;;;;;;4.53;2.60;;;;;;;;;;5073760;28;20966;-64